createdAt,value
2018-05-21T00:01:51.619Z,46.09
2018-05-21T00:04:20.089Z,45.67
2018-05-21T00:06:48.473Z,46.19
2018-05-21T00:09:16.804Z,45.83
2018-05-21T00:11:45.160Z,46.06
2018-05-21T00:14:14.420Z,45.87
2018-05-21T00:16:42.909Z,45.94
2018-05-21T00:19:11.665Z,46.32
2018-05-21T00:21:39.982Z,46.70
2018-05-21T00:24:08.313Z,46.58
2018-05-21T00:26:36.669Z,46.70
2018-05-21T00:29:05.010Z,47.17
2018-05-21T00:31:33.372Z,46.91
2018-05-21T00:34:01.761Z,46.63
2018-05-21T00:36:30.079Z,47.48
2018-05-21T00:38:58.389Z,46.92
2018-05-21T00:41:27.029Z,46.75
2018-05-21T00:43:56.121Z,46.78
2018-05-21T00:46:24.437Z,47.43
2018-05-21T00:48:52.823Z,47.53
2018-05-21T00:51:21.156Z,47.37
2018-05-21T00:53:50.268Z,47.72
2018-05-21T00:56:19.380Z,47.96
2018-05-21T00:58:47.730Z,47.86
2018-05-21T01:01:16.826Z,47.70
2018-05-21T01:03:46.157Z,48.02
2018-05-21T01:06:14.486Z,48.33
2018-05-21T01:08:42.827Z,48.28
2018-05-21T01:11:11.153Z,48.47
2018-05-21T01:13:39.464Z,48.15
2018-05-21T01:16:07.811Z,48.15
2018-05-21T01:18:36.143Z,48.49
2018-05-21T01:21:04.514Z,48.97
2018-05-21T01:23:32.829Z,49.04
2018-05-21T01:26:01.743Z,49.00
2018-05-21T01:28:30.807Z,49.36
2018-05-21T01:30:59.111Z,49.84
2018-05-21T01:33:27.447Z,49.68
2018-05-21T01:35:55.784Z,49.60
2018-05-21T01:38:24.875Z,49.77
2018-05-21T01:40:54.007Z,49.68
2018-05-21T01:43:22.310Z,50.21
2018-05-21T01:45:50.623Z,49.54
2018-05-21T01:48:19.368Z,49.63
2018-05-21T01:50:47.704Z,49.38
2018-05-21T01:53:16.112Z,49.92
2018-05-21T01:55:44.432Z,50.31
2018-05-21T01:58:12.745Z,50.30
2018-05-21T02:00:41.839Z,49.90
2018-05-21T02:03:10.214Z,50.29
2018-05-21T02:05:38.576Z,49.46
2018-05-21T02:08:06.904Z,49.61
2018-05-21T02:10:35.323Z,50.50
2018-05-21T02:13:03.646Z,50.81
2018-05-21T02:15:31.962Z,50.36
2018-05-21T02:18:00.366Z,50.15
2018-05-21T02:20:28.706Z,50.46
2018-05-21T02:22:57.126Z,50.54
2018-05-21T02:25:26.251Z,50.83
2018-05-21T02:27:54.576Z,51.24
2018-05-21T02:30:22.903Z,51.14
2018-05-21T02:32:52.022Z,51.44
2018-05-21T02:35:20.361Z,51.57
2018-05-21T02:37:49.515Z,51.72
2018-05-21T02:40:17.849Z,51.44
2018-05-21T02:42:46.163Z,51.55
2018-05-21T02:45:14.469Z,51.96
2018-05-21T02:47:42.821Z,51.74
2018-05-21T02:50:11.197Z,52.49
2018-05-21T02:52:39.519Z,52.14
2018-05-21T02:55:08.708Z,52.13
2018-05-21T02:57:37.044Z,52.13
2018-05-21T03:00:05.352Z,51.89
2018-05-21T03:02:33.701Z,52.07
2018-05-21T03:05:02.028Z,52.44
2018-05-21T03:07:30.352Z,51.96
2018-05-21T03:09:58.709Z,52.04
2018-05-21T03:12:27.776Z,52.13
2018-05-21T03:14:56.110Z,52.40
2018-05-21T03:17:24.662Z,52.35
2018-05-21T03:19:53.076Z,52.28
2018-05-21T03:22:21.327Z,52.32
2018-05-21T03:24:49.671Z,52.46
2018-05-21T03:27:17.979Z,52.24
2018-05-21T03:29:46.312Z,52.40
2018-05-21T03:32:14.653Z,52.53
2018-05-21T03:34:43.008Z,52.40
2018-05-21T03:37:11.378Z,52.75
2018-05-21T03:39:40.989Z,52.39
2018-05-21T03:42:09.342Z,52.66
2018-05-21T03:44:38.447Z,52.72
2018-05-21T03:47:06.822Z,53.28
2018-05-21T03:49:35.216Z,52.79
2018-05-21T03:52:03.570Z,52.43
2018-05-21T03:54:31.964Z,52.41
2018-05-21T03:57:00.372Z,52.32
2018-05-21T03:59:46.381Z,52.23
2018-05-21T04:02:32.410Z,53.03
2018-05-21T04:05:01.525Z,53.36
2018-05-21T04:07:29.898Z,52.97
2018-05-21T04:09:58.290Z,52.93
2018-05-21T04:12:26.646Z,52.62
2018-05-21T04:14:55.054Z,52.58
2018-05-21T04:17:23.495Z,52.42
2018-05-21T04:19:51.977Z,52.40
2018-05-21T04:22:20.301Z,52.95
2018-05-21T04:24:49.405Z,52.60
2018-05-21T04:27:18.591Z,52.22
2018-05-21T04:29:46.965Z,52.03
2018-05-21T04:32:15.297Z,52.42
2018-05-21T04:34:43.632Z,52.03
2018-05-21T04:37:11.993Z,52.11
2018-05-21T04:39:40.300Z,52.63
2018-05-21T04:42:09.763Z,51.83
2018-05-21T04:44:38.144Z,51.30
2018-05-21T04:47:06.552Z,51.30
2018-05-21T04:49:35.738Z,51.16
2018-05-21T04:52:04.081Z,51.61
2018-05-21T04:54:32.415Z,51.27
2018-05-21T04:57:01.618Z,51.00
2018-05-21T04:59:30.699Z,50.88
2018-05-21T05:01:59.053Z,50.52
2018-05-21T05:04:27.854Z,50.51
2018-05-21T05:06:56.199Z,50.56
2018-05-21T05:09:24.579Z,50.21
2018-05-21T05:11:52.894Z,50.19
2018-05-21T05:14:21.207Z,50.34
2018-05-21T05:16:49.539Z,49.96
2018-05-21T05:19:17.972Z,49.55
2018-05-21T05:21:46.330Z,49.19
2018-05-21T05:24:15.479Z,47.94
2018-05-21T05:26:44.139Z,47.90
2018-05-21T05:29:13.214Z,46.99
2018-05-21T05:31:42.283Z,46.26
2018-05-21T05:34:11.480Z,46.61
2018-05-21T05:36:39.963Z,45.90
2018-05-21T05:39:08.335Z,45.35
2018-05-21T05:41:36.808Z,45.37
2018-05-21T05:44:05.213Z,45.54
2018-05-21T05:46:33.795Z,44.82
2018-05-21T05:49:02.345Z,45.12
2018-05-21T05:51:30.662Z,45.27
2018-05-21T05:53:59.726Z,44.97
2018-05-21T05:56:28.105Z,43.98
2018-05-21T05:58:56.624Z,43.73
2018-05-21T06:01:25.777Z,43.98
2018-05-21T06:03:54.192Z,43.82
2018-05-21T06:06:22.544Z,43.53
2018-05-21T06:08:50.924Z,43.61
2018-05-21T06:11:20.119Z,43.38
2018-05-21T06:13:48.597Z,44.21
2018-05-21T06:16:17.001Z,44.88
2018-05-21T06:18:45.374Z,44.93
2018-05-21T06:21:13.732Z,44.40
2018-05-21T06:23:42.112Z,43.59
2018-05-21T06:26:10.454Z,43.55
2018-05-21T06:28:39.689Z,43.45
2018-05-21T06:31:08.039Z,43.59
2018-05-21T06:33:36.553Z,42.74
2018-05-21T06:36:04.964Z,42.38
2018-05-21T06:38:33.387Z,41.67
2018-05-21T06:41:01.848Z,42.08
2018-05-21T06:43:30.173Z,41.80
2018-05-21T06:45:58.627Z,42.54
2018-05-21T06:48:26.959Z,42.03
2018-05-21T06:50:55.309Z,41.49
2018-05-21T06:53:24.115Z,41.38
2018-05-21T06:55:52.515Z,40.82
2018-05-21T06:58:20.840Z,40.87
2018-05-21T07:00:49.181Z,41.15
2018-05-21T07:03:18.291Z,41.43
2018-05-21T07:05:46.734Z,41.01
2018-05-21T07:08:15.064Z,40.74
2018-05-21T07:10:43.452Z,39.53
2018-05-21T07:13:11.780Z,39.90
2018-05-21T07:15:40.095Z,39.15
2018-05-21T07:18:09.019Z,38.85
2018-05-21T07:20:37.325Z,38.30
2018-05-21T07:23:05.765Z,38.16
2018-05-21T07:25:34.240Z,38.09
2018-05-21T07:28:02.568Z,37.64
2018-05-21T07:30:30.992Z,37.10
2018-05-21T07:32:59.464Z,36.81
2018-05-21T07:35:27.997Z,37.51
2018-05-21T07:37:56.306Z,37.41
2018-05-21T07:40:25.545Z,36.56
2018-05-21T07:42:53.889Z,37.57
2018-05-21T07:45:22.995Z,37.11
2018-05-21T07:47:51.355Z,37.08
2018-05-21T07:50:19.706Z,37.76
2018-05-21T07:52:48.826Z,37.59
2018-05-21T07:55:18.191Z,37.00
2018-05-21T07:57:46.642Z,37.71
2018-05-21T08:00:15.021Z,38.11
2018-05-21T08:02:43.749Z,38.24
2018-05-21T08:05:12.110Z,37.69
2018-05-21T08:07:40.466Z,37.34
2018-05-21T08:10:08.903Z,36.46
2018-05-21T08:12:37.272Z,36.68
2018-05-21T08:15:05.729Z,35.62
2018-05-21T08:17:34.173Z,35.83
2018-05-21T08:20:03.412Z,36.36
2018-05-21T08:22:31.723Z,37.03
2018-05-21T08:25:00.494Z,36.40
2018-05-21T08:27:28.888Z,35.51
2018-05-21T08:29:57.339Z,35.04
2018-05-21T08:32:25.816Z,35.61
2018-05-21T08:34:54.166Z,35.01
2018-05-21T08:37:22.540Z,34.69
2018-05-21T08:39:51.713Z,33.99
2018-05-21T08:42:20.097Z,34.13
2018-05-21T08:44:49.285Z,34.46
2018-05-21T08:47:18.254Z,34.51
2018-05-21T08:49:46.700Z,33.90
2018-05-21T08:52:15.052Z,33.04
2018-05-21T08:54:43.393Z,33.41
2018-05-21T08:57:11.869Z,32.55
2018-05-21T08:59:40.276Z,32.43
2018-05-21T09:02:08.670Z,32.64
2018-05-21T09:04:37.055Z,33.05
2018-05-21T09:07:05.476Z,32.73
2018-05-21T09:09:34.531Z,33.03
2018-05-21T09:12:03.695Z,33.13
2018-05-21T09:14:32.015Z,31.84
2018-05-21T09:17:01.152Z,31.39
2018-05-21T09:19:29.468Z,31.77
2018-05-21T09:21:57.872Z,31.05
2018-05-21T09:24:27.011Z,30.50
2018-05-21T09:26:55.319Z,30.69
2018-05-21T09:29:23.649Z,30.34
2018-05-21T09:31:52.276Z,30.47
2018-05-21T09:34:20.647Z,29.59
2018-05-21T09:36:48.992Z,29.82
2018-05-21T09:39:17.370Z,30.09
2018-05-21T09:41:45.694Z,29.87
2018-05-21T09:44:14.050Z,29.39
2018-05-21T09:46:42.383Z,30.15
2018-05-21T09:49:10.724Z,30.18
2018-05-21T09:51:39.132Z,28.93
2018-05-21T09:54:08.307Z,28.38
2018-05-21T09:56:36.642Z,28.85
2018-05-21T09:59:04.962Z,28.62
2018-05-21T10:01:33.885Z,28.66
2018-05-21T10:04:02.249Z,29.69
2018-05-21T10:06:31.357Z,29.30
2018-05-21T10:09:00.516Z,29.65
2018-05-21T10:11:29.609Z,29.04
2018-05-21T10:13:57.984Z,27.62
2018-05-21T10:16:26.664Z,27.29
2018-05-21T10:18:54.974Z,27.26
2018-05-21T10:21:24.140Z,27.13
2018-05-21T10:23:52.546Z,26.93
2018-05-21T10:26:20.894Z,27.27
2018-05-21T10:28:49.215Z,27.57
2018-05-21T10:31:17.572Z,27.95
2018-05-21T10:33:45.883Z,28.78
2018-05-21T10:36:14.960Z,27.83
2018-05-21T10:38:43.361Z,27.74
2018-05-21T10:41:11.875Z,28.05
2018-05-21T10:43:40.323Z,27.89
2018-05-21T10:46:08.595Z,28.46
2018-05-21T10:48:36.927Z,28.26
2018-05-21T10:51:05.270Z,26.83
2018-05-21T10:53:34.863Z,26.51
2018-05-21T10:56:04.025Z,25.95
2018-05-21T10:58:32.373Z,25.46
2018-05-21T11:01:00.893Z,25.05
2018-05-21T11:03:29.242Z,25.83
2018-05-21T11:05:57.550Z,25.63
2018-05-21T11:08:25.957Z,25.51
2018-05-21T11:10:54.369Z,25.02
2018-05-21T11:13:22.657Z,26.07
2018-05-21T11:15:51.014Z,25.70
2018-05-21T11:18:19.352Z,26.71
2018-05-21T11:20:47.668Z,26.49
2018-05-21T11:23:17.046Z,26.55
2018-05-21T11:25:45.399Z,26.35
2018-05-21T11:28:13.750Z,27.09
2018-05-21T11:30:42.116Z,27.16
2018-05-21T11:33:10.439Z,26.56
2018-05-21T11:35:38.785Z,26.38
2018-05-21T11:38:07.137Z,25.42
2018-05-21T11:40:36.229Z,25.70
2018-05-21T11:43:04.578Z,26.60
2018-05-21T11:45:33.025Z,26.62
2018-05-21T11:48:01.386Z,25.93
2018-05-21T11:50:29.719Z,25.16
2018-05-21T11:52:58.100Z,25.73
2018-05-21T11:55:27.235Z,27.15
2018-05-21T11:57:55.579Z,27.28
2018-05-21T12:00:23.955Z,26.31
2018-05-21T12:02:52.292Z,26.37
2018-05-21T12:05:20.633Z,26.33
2018-05-21T12:07:49.316Z,26.11
2018-05-21T12:10:18.424Z,25.45
2018-05-21T12:12:47.504Z,25.09
2018-05-21T12:15:16.664Z,25.20
2018-05-21T12:17:45.013Z,25.99
2018-05-21T12:20:13.404Z,25.90
2018-05-21T12:22:41.767Z,25.52
2018-05-21T12:25:10.083Z,25.58
2018-05-21T12:27:38.415Z,24.63
2018-05-21T12:30:07.117Z,24.73
2018-05-21T12:32:35.432Z,25.58
2018-05-21T12:35:03.749Z,25.72
2018-05-21T12:37:32.950Z,25.44
2018-05-21T12:40:01.258Z,25.93
2018-05-21T12:42:29.569Z,25.26
2018-05-21T12:44:57.947Z,24.17
2018-05-21T12:47:26.285Z,24.04
2018-05-21T12:49:54.604Z,24.05
2018-05-21T12:52:23.223Z,24.76
2018-05-21T12:54:51.637Z,25.05
2018-05-21T12:57:19.950Z,24.57
2018-05-21T12:59:48.323Z,24.47
2018-05-21T13:02:16.646Z,25.08
2018-05-21T13:04:45.743Z,25.35
2018-05-21T13:07:14.879Z,24.85
2018-05-21T13:09:43.205Z,24.59
2018-05-21T13:12:11.526Z,24.88
2018-05-21T13:14:39.959Z,25.37
2018-05-21T13:17:08.284Z,25.21
2018-05-21T13:19:36.626Z,24.95
2018-05-21T13:22:05.725Z,25.74
2018-05-21T13:24:34.808Z,24.71
2018-05-21T13:27:03.989Z,24.69
2018-05-21T13:29:32.365Z,25.36
2018-05-21T13:32:00.877Z,25.51
2018-05-21T13:34:29.322Z,25.33
2018-05-21T13:36:57.995Z,25.27
2018-05-21T13:39:26.319Z,24.82
2018-05-21T13:41:55.391Z,24.21
2018-05-21T13:44:23.715Z,24.80
2018-05-21T13:46:52.031Z,24.74
2018-05-21T13:49:20.376Z,25.08
2018-05-21T14:01:09.168Z,24.87
2018-05-21T14:03:38.291Z,24.97
2018-05-21T14:06:06.612Z,24.92
2018-05-21T14:08:35.000Z,24.82
2018-05-21T14:11:03.347Z,24.42
2018-05-21T14:13:31.703Z,25.07
2018-05-21T14:16:00.136Z,25.33
2018-05-21T14:18:28.460Z,25.01
2018-05-21T14:20:56.794Z,24.68
2018-05-21T14:23:25.146Z,24.79
2018-05-21T14:25:54.247Z,24.76
2018-05-21T14:28:22.578Z,24.13
2018-05-21T14:30:51.739Z,24.86
2018-05-21T14:33:20.160Z,24.86
2018-05-21T14:35:48.487Z,24.42
2018-05-21T14:38:18.691Z,24.43
2018-05-21T14:47:09.537Z,24.96
2018-05-21T14:49:37.910Z,25.21
2018-05-21T14:52:06.295Z,23.63
2018-05-21T14:54:34.641Z,24.56
2018-05-21T14:57:03.843Z,24.51
2018-05-21T14:59:32.175Z,24.68
2018-05-21T15:02:00.679Z,24.16
2018-05-21T15:04:28.990Z,24.64
2018-05-21T15:06:57.333Z,24.80
2018-05-21T15:09:25.716Z,24.42
2018-05-21T15:11:54.856Z,25.44
2018-05-21T15:14:23.178Z,24.19
2018-05-21T15:16:51.542Z,24.30
2018-05-21T15:19:20.067Z,24.62
2018-05-21T15:21:48.407Z,24.48
2018-05-21T15:24:16.783Z,24.61
2018-05-21T15:26:45.195Z,24.36
2018-05-21T15:29:14.345Z,24.29
2018-05-21T15:31:42.674Z,24.39
2018-05-21T15:34:11.804Z,24.64
2018-05-21T15:36:40.265Z,24.91
2018-05-21T15:39:09.355Z,24.21
2018-05-21T15:41:38.553Z,24.36
2018-05-21T15:44:07.734Z,24.46
2018-05-21T15:46:36.107Z,24.42
2018-05-21T15:49:04.447Z,24.23
2018-05-21T15:51:32.857Z,23.99
2018-05-21T15:54:01.184Z,24.71
2018-05-21T15:56:29.575Z,25.01
2018-05-21T15:58:57.939Z,25.35
2018-05-21T16:01:26.304Z,25.38
2018-05-21T16:03:55.514Z,25.78
2018-05-21T16:06:24.810Z,25.61
2018-05-21T16:08:53.167Z,25.51
2018-05-21T16:11:21.545Z,25.25
2018-05-21T16:13:49.848Z,25.53
2018-05-21T16:16:18.938Z,25.41
2018-05-21T16:18:47.315Z,25.31
2018-05-21T16:21:16.647Z,25.42
2018-05-21T16:23:45.008Z,25.13
2018-05-21T16:26:13.471Z,25.46
2018-05-21T16:28:41.961Z,25.51
2018-05-21T16:31:10.355Z,26.01
2018-05-21T16:33:38.739Z,26.06
2018-05-21T16:36:07.146Z,26.23
2018-05-21T16:38:35.579Z,25.90
2018-05-21T16:41:04.828Z,25.95
2018-05-21T16:43:33.193Z,26.39
2018-05-21T16:46:01.655Z,26.36
2018-05-21T16:48:30.203Z,26.87
2018-05-21T16:50:58.498Z,26.43
2018-05-21T16:53:26.840Z,26.98
2018-05-21T16:55:55.215Z,26.26
2018-05-21T16:58:23.555Z,26.22
2018-05-21T17:00:51.902Z,26.69
2018-05-21T17:03:20.285Z,26.93
2018-05-21T17:05:48.610Z,27.10
2018-05-21T17:08:16.964Z,27.38
2018-05-21T17:10:45.451Z,27.41
2018-05-21T17:13:13.790Z,27.51
2018-05-21T17:15:42.911Z,27.91
2018-05-21T17:18:12.051Z,28.15
2018-05-21T17:20:40.405Z,28.33
2018-05-21T17:23:08.753Z,27.84
2018-05-21T17:25:37.898Z,27.72
2018-05-21T17:28:06.239Z,27.59
2018-05-21T17:30:35.373Z,27.55
2018-05-21T17:33:03.917Z,27.29
2018-05-21T17:35:33.034Z,27.66
2018-05-21T17:38:01.410Z,27.41
2018-05-21T17:40:29.787Z,27.21
2018-05-21T17:42:58.161Z,27.64
2018-05-21T17:45:26.520Z,27.47
2018-05-21T17:47:54.884Z,27.22
2018-05-21T17:50:23.219Z,27.50
2018-05-21T17:52:51.552Z,27.47
2018-05-21T17:55:20.098Z,27.69
2018-05-21T17:57:48.536Z,27.50
2018-05-21T18:00:16.831Z,27.53
2018-05-21T18:02:45.317Z,27.89
2018-05-21T18:05:13.647Z,28.69
2018-05-21T18:07:42.000Z,28.71
2018-05-21T18:10:10.341Z,28.30
2018-05-21T18:12:38.672Z,28.65
2018-05-21T18:15:06.991Z,28.76
2018-05-21T18:17:36.372Z,28.87
2018-05-21T18:20:04.720Z,28.98
2018-05-21T18:22:33.047Z,29.06
2018-05-21T18:25:02.177Z,29.07
2018-05-21T18:27:30.544Z,29.11
2018-05-21T18:29:58.884Z,29.13
2018-05-21T18:32:28.008Z,29.15
2018-05-21T18:34:56.375Z,29.39
2018-05-21T18:37:25.470Z,29.30
2018-05-21T18:39:54.667Z,29.35
2018-05-21T18:42:23.830Z,29.68
2018-05-21T18:44:52.848Z,29.82
2018-05-21T18:47:22.374Z,29.93
2018-05-21T18:49:50.696Z,29.90
2018-05-21T18:52:19.099Z,30.27
2018-05-21T18:54:47.465Z,30.27
2018-05-21T18:57:15.775Z,30.08
2018-05-21T18:59:44.095Z,30.16
2018-05-21T19:02:12.554Z,30.20
2018-05-21T19:04:40.875Z,30.26
2018-05-21T19:07:09.196Z,30.37
2018-05-21T19:09:38.338Z,30.63
2018-05-21T19:12:06.688Z,31.04
2018-05-21T19:14:35.035Z,30.95
2018-05-21T19:17:03.410Z,31.15
2018-05-21T19:19:31.733Z,31.16
2018-05-21T19:22:00.081Z,31.15
2018-05-21T19:24:29.256Z,31.15
2018-05-21T19:26:57.640Z,31.46
2018-05-21T19:29:25.960Z,31.53
2018-05-21T19:31:54.319Z,31.77
2018-05-21T19:34:22.706Z,31.82
2018-05-21T19:36:51.839Z,31.45
2018-05-21T19:39:20.233Z,31.68
2018-05-21T19:41:48.594Z,31.56
2018-05-21T19:44:16.934Z,31.92
2018-05-21T19:46:45.787Z,31.96
2018-05-21T19:49:14.141Z,32.21
2018-05-21T19:51:42.575Z,32.51
2018-05-21T19:54:11.736Z,32.60
2018-05-21T19:56:40.063Z,32.63
2018-05-21T19:59:09.177Z,32.77
2018-05-21T20:01:37.549Z,33.02
2018-05-21T20:04:05.908Z,32.98
2018-05-21T20:06:35.041Z,32.91
2018-05-21T20:09:03.660Z,33.29
2018-05-21T20:11:31.969Z,33.29
2018-05-21T20:14:01.087Z,33.49
2018-05-21T20:16:29.463Z,33.92
2018-05-21T20:18:57.806Z,33.86
2018-05-21T20:21:26.131Z,34.03
2018-05-21T20:23:54.529Z,34.03
2018-05-21T20:26:23.233Z,34.14
2018-05-21T20:28:51.553Z,34.22
2018-05-21T20:31:20.987Z,34.80
2018-05-21T20:33:49.293Z,35.24
2018-05-21T20:36:17.612Z,35.54
2018-05-21T20:38:46.963Z,35.63
2018-05-21T20:41:15.334Z,35.99
2018-05-21T20:43:43.679Z,36.51
2018-05-21T20:46:12.821Z,37.25
2018-05-21T20:48:41.187Z,37.74
2018-05-21T20:51:09.527Z,39.05
2018-05-21T20:53:38.747Z,39.13
2018-05-21T20:56:07.207Z,39.13
2018-05-21T20:58:35.558Z,39.56
2018-05-21T21:01:04.566Z,39.96
2018-05-21T21:03:34.511Z,39.49
2018-05-21T21:06:03.231Z,40.14
2018-05-21T21:08:31.605Z,40.08
2018-05-21T21:10:59.918Z,40.38
2018-05-21T21:13:28.226Z,40.78
2018-05-21T21:15:56.635Z,41.08
2018-05-21T21:18:25.156Z,41.25
2018-05-21T21:20:53.725Z,41.50
2018-05-21T21:23:22.309Z,41.09
2018-05-21T21:25:50.699Z,41.78
2018-05-21T21:28:19.038Z,42.46
2018-05-21T21:30:47.404Z,42.34
2018-05-21T21:33:15.867Z,42.65
2018-05-21T21:35:44.396Z,42.46
2018-05-21T21:38:13.260Z,42.90
2018-05-21T21:40:42.853Z,43.47
2018-05-21T21:43:11.270Z,43.65
2018-05-21T21:45:39.761Z,43.51
2018-05-21T21:48:08.334Z,43.21
2018-05-21T21:50:36.659Z,43.41
2018-05-21T21:53:05.112Z,43.31
2018-05-21T21:55:33.472Z,43.70
2018-05-21T21:58:01.997Z,43.86
2018-05-21T22:00:31.494Z,43.55
2018-05-21T22:03:00.168Z,44.00
2018-05-21T22:05:30.181Z,44.29
2018-05-21T22:07:58.593Z,45.30
2018-05-21T22:10:27.708Z,45.41
2018-05-21T22:12:57.088Z,44.93
2018-05-21T22:15:25.449Z,45.16
2018-05-21T22:17:53.754Z,45.82
2018-05-21T22:20:22.889Z,45.53
2018-05-21T22:22:51.663Z,45.39
2018-05-21T22:25:20.033Z,45.26
2018-05-21T22:27:49.135Z,44.85
2018-05-21T22:30:17.499Z,45.00
2018-05-21T22:32:45.816Z,45.54
2018-05-21T22:35:14.157Z,45.66
2018-05-21T22:37:43.285Z,45.34
2018-05-21T22:40:11.590Z,45.88
2018-05-21T22:42:40.179Z,45.12
2018-05-21T22:45:08.816Z,45.45
2018-05-21T22:47:37.144Z,45.54
2018-05-21T22:50:05.461Z,45.48
2018-05-21T22:52:34.603Z,46.16
2018-05-21T22:55:02.939Z,45.87
2018-05-21T22:57:31.277Z,46.15
2018-05-21T22:59:59.614Z,46.14
2018-05-21T23:02:27.916Z,46.19
2018-05-21T23:04:56.269Z,46.25
2018-05-21T23:07:24.714Z,46.38
2018-05-21T23:09:53.020Z,46.88
2018-05-21T23:12:21.348Z,46.95
2018-05-21T23:14:49.726Z,46.58
2018-05-21T23:17:18.156Z,46.41
2018-05-21T23:19:46.481Z,46.32
2018-05-21T23:22:14.834Z,46.59
2018-05-21T23:24:43.193Z,46.55
2018-05-21T23:27:11.566Z,46.64
2018-05-21T23:29:40.889Z,46.88
2018-05-21T23:32:09.218Z,47.07
2018-05-21T23:34:37.543Z,47.14
2018-05-21T23:37:05.904Z,47.32
2018-05-21T23:39:34.228Z,47.62
2018-05-21T23:42:02.560Z,47.82
2018-05-21T23:44:31.681Z,47.74
2018-05-21T23:47:00.027Z,47.60
2018-05-21T23:49:28.336Z,47.52
2018-05-21T23:51:56.858Z,47.68
2018-05-21T23:54:26.000Z,47.59
2018-05-21T23:56:54.380Z,47.65
2018-05-21T23:59:22.759Z,47.81
